createdAt,value
2019-03-05T00:01:41.706Z,5.40
2019-03-05T00:04:11.910Z,5.40
2019-03-05T00:06:42.148Z,5.30
2019-03-05T00:09:14.244Z,5.20
2019-03-05T00:11:44.407Z,5.30
2019-03-05T00:14:14.602Z,5.30
2019-03-05T00:16:44.800Z,5.20
2019-03-05T00:19:15.322Z,5.30
2019-03-05T00:21:45.590Z,5.30
2019-03-05T00:24:52.554Z,5.20
2019-03-05T00:27:22.726Z,5.20
2019-03-05T00:30:19.814Z,5.30
2019-03-05T00:32:55.856Z,5.30
2019-03-05T00:35:50.294Z,5.20
2019-03-05T00:38:43.361Z,5.20
2019-03-05T00:41:32.081Z,5.20
2019-03-05T00:44:10.528Z,5.20
2019-03-05T00:47:01.995Z,5.20
2019-03-05T00:49:53.810Z,5.10
2019-03-05T00:52:42.160Z,5.10
2019-03-05T00:55:21.452Z,5.10
2019-03-05T00:58:03.650Z,5.10
2019-03-05T01:00:42.443Z,5.00
2019-03-05T01:03:40.117Z,5.00
2019-03-05T01:06:22.614Z,5.00
2019-03-05T01:08:55.695Z,5.00
2019-03-05T01:11:26.135Z,5.10
2019-03-05T01:13:56.655Z,5.10
2019-03-05T01:16:28.877Z,5.10
2019-03-05T01:18:59.553Z,5.10
2019-03-05T01:21:29.746Z,5.10
2019-03-05T01:24:00.204Z,5.10
2019-03-05T01:26:30.768Z,5.10
2019-03-05T01:29:03.119Z,5.20
2019-03-05T01:31:34.590Z,5.20
2019-03-05T01:34:09.713Z,5.20
2019-03-05T01:36:44.976Z,5.20
2019-03-05T01:39:26.096Z,5.20
2019-03-05T01:41:56.288Z,5.20
2019-03-05T01:44:27.525Z,5.20
2019-03-05T01:46:57.817Z,5.20
2019-03-05T01:49:28.093Z,5.30
2019-03-05T01:51:58.606Z,5.30
2019-03-05T01:54:28.869Z,5.30
2019-03-05T01:56:59.229Z,5.30
2019-03-05T01:59:29.523Z,5.30
2019-03-05T02:01:59.981Z,5.30
2019-03-05T02:04:30.241Z,5.30
2019-03-05T02:07:00.733Z,5.30
2019-03-05T02:09:31.178Z,5.30
2019-03-05T02:12:01.632Z,5.30
2019-03-05T02:14:31.865Z,5.30
2019-03-05T02:17:02.122Z,5.30
2019-03-05T02:19:37.823Z,5.30
2019-03-05T02:22:13.609Z,5.40
2019-03-05T02:25:01.857Z,5.30
2019-03-05T02:27:55.744Z,5.30
2019-03-05T02:30:34.682Z,5.30
2019-03-05T02:33:10.710Z,5.20
2019-03-05T02:35:52.288Z,5.20
2019-03-05T02:38:49.947Z,5.10
2019-03-05T02:41:26.055Z,5.00
2019-03-05T02:44:11.186Z,5.10
2019-03-05T02:46:44.534Z,5.10
2019-03-05T02:49:32.683Z,5.00
2019-03-05T02:52:05.956Z,5.00
2019-03-05T02:54:41.739Z,5.00
2019-03-05T02:57:10.858Z,5.10
2019-03-05T02:59:41.233Z,5.10
2019-03-05T03:02:13.432Z,5.10
2019-03-05T03:04:50.936Z,5.10
2019-03-05T03:07:21.227Z,5.10
2019-03-05T03:09:54.468Z,5.20
2019-03-05T03:12:24.842Z,5.20
2019-03-05T03:14:55.217Z,5.20
2019-03-05T03:17:25.415Z,5.20
2019-03-05T03:19:55.602Z,5.20
2019-03-05T03:22:25.757Z,5.20
2019-03-05T03:24:56.124Z,5.20
2019-03-05T03:27:26.430Z,5.20
2019-03-05T03:29:56.795Z,5.20
2019-03-05T03:32:27.271Z,5.20
2019-03-05T03:34:57.542Z,5.20
2019-03-05T03:37:27.846Z,5.20
2019-03-05T03:39:58.226Z,5.20
2019-03-05T03:42:28.870Z,5.10
2019-03-05T03:44:59.034Z,5.20
2019-03-05T03:47:29.322Z,5.20
2019-03-05T03:49:59.718Z,5.20
2019-03-05T03:52:29.889Z,5.20
2019-03-05T03:55:00.385Z,5.10
2019-03-05T03:57:30.544Z,5.20
2019-03-05T04:00:00.800Z,5.30
2019-03-05T04:02:31.077Z,5.20
2019-03-05T04:05:01.650Z,5.20
2019-03-05T04:07:31.858Z,5.20
2019-03-05T04:10:02.050Z,5.20
2019-03-05T04:12:32.212Z,5.20
2019-03-05T04:15:02.405Z,5.20
2019-03-05T04:17:32.573Z,5.20
2019-03-05T04:20:03.208Z,5.20
2019-03-05T04:22:33.368Z,5.20
2019-03-05T04:25:05.626Z,5.20
2019-03-05T04:27:35.948Z,5.20
2019-03-05T04:30:14.620Z,5.20
2019-03-05T04:32:44.894Z,5.20
2019-03-05T04:35:15.185Z,5.20
2019-03-05T04:37:45.559Z,5.30
2019-03-05T04:40:15.913Z,5.20
2019-03-05T04:42:46.143Z,5.20
2019-03-05T04:45:53.085Z,5.20
2019-03-05T04:48:23.424Z,5.20
2019-03-05T04:51:10.518Z,5.20
2019-03-05T04:53:40.728Z,5.20
2019-03-05T04:56:10.898Z,5.30
2019-03-05T04:58:41.061Z,5.20
2019-03-05T05:01:11.476Z,5.20
2019-03-05T05:03:41.809Z,5.20
2019-03-05T05:06:12.098Z,5.20
2019-03-05T05:08:42.260Z,5.20
2019-03-05T05:11:12.437Z,5.20
2019-03-05T05:13:42.715Z,5.20
2019-03-05T05:16:13.009Z,5.20
2019-03-05T05:18:43.178Z,5.30
2019-03-05T05:21:13.460Z,5.30
2019-03-05T05:23:43.637Z,5.30
2019-03-05T05:26:13.926Z,5.30
2019-03-05T05:28:44.105Z,5.30
2019-03-05T05:31:14.680Z,5.30
2019-03-05T05:33:44.847Z,5.30
2019-03-05T05:36:15.319Z,5.30
2019-03-05T05:38:46.032Z,5.30
2019-03-05T05:41:16.630Z,5.30
2019-03-05T05:43:47.297Z,5.30
2019-03-05T05:46:17.948Z,5.30
2019-03-05T05:48:48.252Z,5.30
2019-03-05T05:51:18.597Z,5.40
2019-03-05T05:53:48.776Z,5.30
2019-03-05T05:56:19.177Z,5.30
2019-03-05T05:58:49.342Z,5.30
2019-03-05T06:01:19.749Z,5.30
2019-03-05T06:03:49.918Z,5.30
2019-03-05T06:06:20.110Z,5.20
2019-03-05T06:08:50.478Z,5.20
2019-03-05T06:11:20.855Z,5.20
2019-03-05T06:13:51.029Z,5.20
2019-03-05T06:16:21.322Z,5.20
2019-03-05T06:18:51.488Z,5.30
2019-03-05T06:21:21.772Z,5.30
2019-03-05T06:23:52.034Z,5.40
2019-03-05T06:26:22.334Z,5.50
2019-03-05T06:28:52.601Z,5.50
2019-03-05T06:31:22.897Z,5.40
2019-03-05T06:33:53.165Z,5.40
2019-03-05T06:36:23.356Z,5.50
2019-03-05T06:38:53.734Z,5.40
2019-03-05T06:41:24.117Z,5.40
2019-03-05T06:43:54.386Z,5.40
2019-03-05T06:46:24.585Z,5.40
2019-03-05T06:48:54.861Z,5.40
2019-03-05T06:51:25.244Z,5.50
2019-03-05T06:53:55.510Z,5.50
2019-03-05T06:56:25.800Z,5.50
2019-03-05T06:58:56.078Z,5.60
2019-03-05T07:01:26.461Z,5.60
2019-03-05T07:03:56.724Z,5.70
2019-03-05T07:06:38.964Z,5.80
2019-03-05T07:09:14.959Z,5.80
2019-03-05T07:11:57.433Z,5.90
2019-03-05T07:14:48.924Z,5.90
2019-03-05T07:17:27.889Z,5.80
2019-03-05T07:20:10.087Z,5.90
2019-03-05T07:22:55.453Z,5.90
2019-03-05T07:25:27.617Z,5.90
2019-03-05T07:27:57.843Z,5.90
2019-03-05T07:30:28.281Z,5.80
2019-03-05T07:32:58.751Z,5.80
2019-03-05T07:35:30.428Z,5.80
2019-03-05T07:38:00.742Z,5.80
2019-03-05T07:40:30.989Z,5.80
2019-03-05T07:43:01.559Z,5.80
2019-03-05T07:45:31.734Z,5.90
2019-03-05T07:48:02.076Z,5.90
2019-03-05T07:50:32.422Z,5.90
2019-03-05T07:53:02.818Z,5.80
2019-03-05T07:55:33.100Z,5.80
2019-03-05T07:58:03.481Z,5.90
2019-03-05T08:00:35.221Z,5.90
2019-03-05T08:03:05.550Z,6.00
2019-03-05T08:05:35.812Z,6.10
2019-03-05T08:08:42.458Z,6.10
2019-03-05T08:11:12.723Z,6.10
2019-03-05T08:13:55.110Z,6.20
2019-03-05T08:16:26.244Z,6.40
2019-03-05T08:18:56.430Z,6.40
2019-03-05T08:21:26.940Z,6.60
2019-03-05T08:23:57.423Z,6.70
2019-03-05T08:26:27.616Z,6.60
2019-03-05T08:28:57.806Z,6.60
2019-03-05T08:31:27.960Z,6.60
2019-03-05T08:33:58.208Z,6.50
2019-03-05T08:36:28.586Z,6.50
2019-03-05T08:38:58.977Z,6.60
2019-03-05T08:41:29.344Z,6.70
2019-03-05T08:43:59.710Z,6.80
2019-03-05T08:46:29.979Z,6.70
2019-03-05T08:49:00.282Z,6.90
2019-03-05T08:51:30.554Z,7.00
2019-03-05T08:54:00.758Z,7.00
2019-03-05T08:56:31.029Z,7.10
2019-03-05T08:59:01.323Z,7.30
2019-03-05T09:01:31.484Z,7.30
2019-03-05T09:04:01.710Z,7.20
2019-03-05T09:06:31.971Z,7.10
2019-03-05T09:09:02.161Z,7.00
2019-03-05T09:11:32.484Z,6.90
2019-03-05T09:14:02.949Z,6.90
2019-03-05T09:16:33.112Z,6.90
2019-03-05T09:19:04.175Z,7.00
2019-03-05T09:21:34.434Z,7.00
2019-03-05T09:24:04.939Z,7.10
2019-03-05T09:26:35.244Z,7.20
2019-03-05T09:32:03.498Z,7.50
2019-03-05T09:34:33.675Z,7.40
2019-03-05T09:37:04.011Z,7.40
2019-03-05T09:39:34.255Z,7.50
2019-03-05T09:42:04.660Z,7.70
2019-03-05T09:44:34.984Z,7.70
2019-03-05T09:47:05.286Z,7.80
2019-03-05T09:49:35.682Z,7.90
2019-03-05T09:52:06.022Z,8.10
2019-03-05T09:54:37.844Z,8.20
2019-03-05T09:57:09.210Z,8.20
2019-03-05T09:59:39.414Z,8.20
2019-03-05T10:02:09.770Z,8.30
2019-03-05T10:04:39.954Z,8.10
2019-03-05T10:07:18.575Z,8.10
2019-03-05T10:09:42.296Z,8.00
2019-03-05T10:12:12.825Z,8.00
2019-03-05T10:14:43.015Z,8.10
2019-03-05T10:17:13.261Z,8.20
2019-03-05T10:19:43.953Z,8.20
2019-03-05T10:22:14.285Z,8.20
2019-03-05T10:24:44.566Z,8.30
2019-03-05T10:27:14.924Z,8.30
2019-03-05T10:29:45.248Z,8.10
2019-03-05T10:32:15.682Z,8.10
2019-03-05T10:34:46.209Z,8.20
2019-03-05T10:37:18.931Z,8.30
2019-03-05T10:39:48.437Z,8.40
2019-03-05T10:42:18.886Z,8.50
2019-03-05T10:44:50.036Z,8.60
2019-03-05T10:47:20.261Z,8.60
2019-03-05T10:49:50.737Z,8.70
2019-03-05T10:52:21.112Z,8.80
2019-03-05T10:54:51.305Z,8.80
2019-03-05T10:57:21.538Z,9.00
2019-03-05T10:59:51.720Z,9.00
2019-03-05T11:02:22.053Z,8.90
2019-03-05T11:04:52.478Z,8.80
2019-03-05T11:07:22.784Z,8.90
2019-03-05T11:09:53.434Z,8.90
2019-03-05T11:12:23.761Z,8.90
2019-03-05T11:14:54.126Z,8.90
2019-03-05T11:17:24.956Z,8.70
2019-03-05T11:19:55.152Z,8.70
2019-03-05T11:22:25.408Z,8.80
2019-03-05T11:24:55.764Z,8.90
2019-03-05T11:27:26.041Z,8.90
2019-03-05T11:29:56.204Z,8.80
2019-03-05T11:32:26.409Z,8.90
2019-03-05T11:34:56.561Z,9.00
2019-03-05T11:37:26.814Z,9.00
2019-03-05T11:39:57.013Z,8.80
2019-03-05T11:42:27.210Z,8.80
2019-03-05T11:45:07.167Z,8.70
2019-03-05T11:47:30.921Z,8.70
2019-03-05T11:50:01.497Z,8.60
2019-03-05T11:52:31.681Z,8.60
2019-03-05T11:55:01.905Z,8.60
2019-03-05T11:57:32.146Z,8.70
2019-03-05T12:00:02.750Z,8.70
2019-03-05T12:02:33.146Z,8.70
2019-03-05T12:05:03.784Z,8.70
2019-03-05T12:07:33.996Z,8.60
2019-03-05T12:10:07.557Z,8.60
2019-03-05T12:12:37.735Z,8.70
2019-03-05T12:15:16.421Z,8.70
2019-03-05T12:17:47.097Z,8.70
2019-03-05T12:20:18.033Z,8.70
2019-03-05T12:22:48.310Z,8.70
2019-03-05T12:25:23.897Z,8.70
2019-03-05T12:27:54.198Z,8.70
2019-03-05T12:30:27.456Z,8.60
2019-03-05T12:32:57.870Z,8.60
2019-03-05T12:35:28.101Z,8.60
2019-03-05T12:37:59.784Z,8.60
2019-03-05T12:40:30.182Z,8.50
2019-03-05T12:43:00.371Z,8.50
2019-03-05T12:45:30.642Z,8.60
2019-03-05T12:48:00.896Z,8.60
2019-03-05T12:50:33.308Z,8.60
2019-03-05T12:53:03.836Z,8.50
2019-03-05T12:55:34.128Z,8.50
2019-03-05T12:58:04.480Z,8.50
2019-03-05T13:00:35.886Z,8.50
2019-03-05T13:03:06.215Z,8.60
2019-03-05T13:05:36.376Z,8.60
2019-03-05T13:08:07.282Z,8.50
2019-03-05T13:10:37.742Z,8.50
2019-03-05T13:13:10.417Z,8.50
2019-03-05T13:15:42.526Z,8.50
2019-03-05T13:18:14.290Z,8.50
2019-03-05T13:20:44.578Z,8.40
2019-03-05T13:23:14.769Z,8.40
2019-03-05T13:25:44.920Z,8.40
2019-03-05T13:28:15.205Z,8.30
2019-03-05T13:30:47.082Z,8.30
2019-03-05T13:33:17.266Z,8.40
2019-03-05T13:35:47.530Z,8.40
2019-03-05T13:38:17.786Z,8.30
2019-03-05T13:40:47.948Z,8.30
2019-03-05T13:43:18.230Z,8.30
2019-03-05T13:45:50.270Z,8.10
2019-03-05T13:48:40.080Z,8.00
2019-03-05T13:51:47.073Z,7.90
2019-03-05T13:54:23.334Z,7.90
2019-03-05T13:57:02.172Z,7.90
2019-03-05T13:59:43.570Z,8.00
2019-03-05T14:02:16.648Z,7.90
2019-03-05T14:05:10.826Z,7.90
2019-03-05T14:08:17.848Z,7.80
2019-03-05T14:10:48.449Z,7.70
2019-03-05T14:13:18.816Z,7.60
2019-03-05T14:15:49.068Z,7.50
2019-03-05T14:18:19.275Z,7.50
2019-03-05T14:20:49.960Z,7.40
2019-03-05T14:23:20.338Z,7.30
2019-03-05T14:25:50.493Z,7.30
2019-03-05T14:28:20.718Z,7.30
2019-03-05T14:30:50.883Z,7.30
2019-03-05T14:33:21.154Z,7.30
2019-03-05T14:35:51.326Z,7.30
2019-03-05T14:38:21.656Z,7.20
2019-03-05T14:40:52.000Z,7.10
2019-03-05T14:43:22.461Z,7.00
2019-03-05T14:45:53.312Z,7.00
2019-03-05T14:48:24.144Z,7.00
2019-03-05T14:50:54.559Z,7.00
2019-03-05T14:53:25.365Z,7.00
2019-03-05T14:55:55.690Z,7.10
2019-03-05T14:58:26.021Z,7.00
2019-03-05T15:00:56.177Z,7.00
2019-03-05T15:03:26.387Z,7.00
2019-03-05T15:05:56.757Z,7.00
2019-03-05T15:08:27.025Z,7.00
2019-03-05T15:10:57.200Z,6.90
2019-03-05T15:13:27.364Z,6.90
2019-03-05T15:15:58.168Z,6.90
2019-03-05T15:18:28.353Z,7.00
2019-03-05T15:20:58.506Z,7.00
2019-03-05T15:23:28.802Z,7.00
2019-03-05T15:25:59.030Z,7.00
2019-03-05T15:28:30.833Z,7.00
2019-03-05T15:31:01.620Z,7.00
2019-03-05T15:33:31.798Z,7.00
2019-03-05T15:36:01.997Z,6.90
2019-03-05T15:38:32.162Z,7.00
2019-03-05T15:41:02.449Z,7.00
2019-03-05T15:43:32.698Z,7.00
2019-03-05T15:46:02.951Z,6.90
2019-03-05T15:48:33.288Z,6.90
2019-03-05T15:51:03.646Z,6.80
2019-03-05T15:53:34.028Z,6.80
2019-03-05T15:56:05.777Z,6.80
2019-03-05T15:58:36.097Z,6.80
2019-03-05T16:01:06.316Z,6.70
2019-03-05T16:03:36.795Z,6.70
2019-03-05T16:06:07.250Z,6.60
2019-03-05T16:08:37.615Z,6.60
2019-03-05T16:11:07.882Z,6.60
2019-03-05T16:13:38.930Z,6.60
2019-03-05T16:16:09.415Z,6.70
2019-03-05T16:18:40.307Z,6.60
2019-03-05T16:21:11.908Z,6.60
2019-03-05T16:23:43.080Z,6.50
2019-03-05T16:26:13.525Z,6.50
2019-03-05T16:28:45.004Z,6.30
2019-03-05T16:31:21.706Z,6.30
2019-03-05T16:33:57.042Z,6.30
2019-03-05T16:36:30.525Z,6.40
2019-03-05T16:39:11.406Z,6.40
2019-03-05T16:41:58.652Z,6.30
2019-03-05T16:44:30.769Z,6.30
2019-03-05T16:47:02.692Z,6.20
2019-03-05T16:49:43.931Z,6.10
2019-03-05T16:52:32.169Z,6.10
2019-03-05T16:55:06.942Z,6.10
2019-03-05T16:57:55.066Z,6.10
2019-03-05T17:00:32.994Z,6.10
2019-03-05T17:03:05.056Z,6.20
2019-03-05T17:05:47.455Z,6.20
2019-03-05T17:08:25.643Z,6.20
2019-03-05T17:10:58.452Z,6.20
2019-03-05T17:13:28.685Z,6.10
2019-03-05T17:15:58.996Z,6.10
2019-03-05T17:18:29.273Z,6.10
2019-03-05T17:20:59.745Z,6.10
2019-03-05T17:23:31.057Z,6.10
2019-03-05T17:26:01.674Z,6.10
2019-03-05T17:28:32.214Z,6.10
2019-03-05T17:31:02.864Z,6.10
2019-03-05T17:33:33.134Z,6.00
2019-03-05T17:36:03.530Z,5.90
2019-03-05T17:38:33.713Z,5.80
2019-03-05T17:41:04.236Z,5.80
2019-03-05T17:43:34.416Z,5.90
2019-03-05T17:46:04.738Z,5.80
2019-03-05T17:48:35.000Z,5.80
2019-03-05T17:51:05.539Z,5.90
2019-03-05T17:53:35.768Z,5.90
2019-03-05T17:56:06.106Z,5.90
2019-03-05T17:58:36.364Z,5.90
2019-03-05T18:01:08.097Z,6.00
2019-03-05T18:03:38.605Z,6.00
2019-03-05T18:06:08.797Z,6.00
2019-03-05T18:08:38.965Z,6.00
2019-03-05T18:11:09.163Z,6.00
2019-03-05T18:13:39.462Z,6.00
2019-03-05T18:16:09.853Z,5.90
2019-03-05T18:18:40.826Z,5.90
2019-03-05T18:21:11.086Z,5.90
2019-03-05T18:23:41.354Z,5.90
2019-03-05T18:26:11.644Z,5.80
2019-03-05T18:28:41.826Z,5.80
2019-03-05T18:31:12.269Z,5.90
2019-03-05T18:33:42.446Z,5.90
2019-03-05T18:36:13.198Z,5.90
2019-03-05T18:38:43.751Z,5.90
2019-03-05T18:41:14.118Z,5.90
2019-03-05T18:43:44.291Z,5.90
2019-03-05T18:46:14.716Z,5.90
2019-03-05T18:48:45.185Z,5.90
2019-03-05T18:51:16.484Z,5.90
2019-03-05T18:53:46.962Z,5.90
2019-03-05T18:56:17.153Z,5.90
2019-03-05T18:58:47.394Z,5.90
2019-03-05T19:01:17.755Z,5.90
2019-03-05T19:03:47.966Z,5.80
2019-03-05T19:06:18.262Z,5.90
2019-03-05T19:08:48.959Z,5.90
2019-03-05T19:11:20.170Z,5.80
2019-03-05T19:13:50.717Z,5.90
2019-03-05T19:16:21.110Z,5.90
2019-03-05T19:18:51.866Z,5.90
2019-03-05T19:21:22.301Z,5.90
2019-03-05T19:23:52.770Z,5.90
2019-03-05T19:26:23.053Z,5.90
2019-03-05T19:28:53.421Z,5.80
2019-03-05T19:31:23.731Z,5.80
2019-03-05T19:33:53.993Z,5.80
2019-03-05T19:36:24.251Z,5.80
2019-03-05T19:38:54.469Z,5.80
2019-03-05T19:41:24.653Z,5.80
2019-03-05T19:43:54.846Z,5.80
2019-03-05T19:46:25.498Z,5.80
2019-03-05T19:48:55.674Z,5.80
2019-03-05T19:51:25.838Z,5.90
2019-03-05T19:53:56.235Z,5.80
2019-03-05T19:56:26.424Z,5.80
2019-03-05T19:58:56.912Z,5.80
2019-03-05T20:01:28.708Z,5.80
2019-03-05T20:03:58.915Z,5.80
2019-03-05T20:06:29.558Z,5.80
2019-03-05T20:08:59.830Z,5.80
2019-03-05T20:11:30.205Z,5.80
2019-03-05T20:14:00.382Z,5.80
2019-03-05T20:16:30.722Z,5.80
2019-03-05T20:19:00.949Z,5.80
2019-03-05T20:21:31.192Z,5.80
2019-03-05T20:24:01.377Z,5.80
2019-03-05T20:26:31.637Z,5.80
2019-03-05T20:29:02.033Z,5.80
2019-03-05T20:31:32.599Z,5.80
2019-03-05T20:34:02.788Z,5.80
2019-03-05T20:36:33.152Z,5.80
2019-03-05T20:39:04.382Z,5.80
2019-03-05T20:41:34.558Z,5.80
2019-03-05T20:44:06.537Z,5.80
2019-03-05T20:46:36.797Z,5.80
2019-03-05T20:49:06.977Z,5.80
2019-03-05T20:51:37.253Z,5.80
2019-03-05T20:54:07.642Z,5.80
2019-03-05T20:56:37.903Z,5.80
2019-03-05T20:59:08.093Z,5.80
2019-03-05T21:01:38.828Z,5.80
2019-03-05T21:04:09.117Z,5.80
2019-03-05T21:06:39.388Z,5.80
2019-03-05T21:09:18.273Z,5.80
2019-03-05T21:11:48.454Z,5.80
2019-03-05T21:14:18.908Z,5.80
2019-03-05T21:16:49.158Z,5.80
2019-03-05T21:19:19.454Z,5.80
2019-03-05T21:21:49.634Z,5.80
2019-03-05T21:24:20.017Z,5.80
2019-03-05T21:26:50.280Z,5.80
2019-03-05T21:29:21.287Z,5.80
2019-03-05T21:31:51.750Z,5.80
2019-03-05T21:34:22.269Z,5.90
2019-03-05T21:36:52.636Z,5.90
2019-03-05T21:39:22.920Z,5.90
2019-03-05T21:41:53.303Z,5.90
2019-03-05T21:44:23.495Z,5.90
2019-03-05T21:46:53.857Z,5.90
2019-03-05T21:49:24.250Z,5.90
2019-03-05T21:51:54.515Z,5.90
2019-03-05T21:54:25.096Z,5.90
2019-03-05T21:56:56.856Z,5.90
2019-03-05T21:59:27.309Z,5.90
2019-03-05T22:01:57.668Z,5.90
2019-03-05T22:04:28.053Z,5.90
2019-03-05T22:06:58.208Z,5.90
2019-03-05T22:09:28.687Z,5.90
2019-03-05T22:11:58.846Z,6.00
2019-03-05T22:14:29.332Z,6.00
2019-03-05T22:16:59.601Z,6.10
2019-03-05T22:19:29.866Z,6.10
2019-03-05T22:22:00.029Z,6.10
2019-03-05T22:24:30.327Z,6.20
2019-03-05T22:27:00.481Z,6.20
2019-03-05T22:29:30.666Z,6.20
2019-03-05T22:32:01.318Z,6.20
2019-03-05T22:34:31.502Z,6.20
2019-03-05T22:37:01.730Z,6.20
2019-03-05T22:39:31.914Z,6.20
2019-03-05T22:42:02.077Z,6.20
2019-03-05T22:44:32.473Z,6.30
2019-03-05T22:47:02.835Z,6.30
2019-03-05T22:49:33.208Z,6.30
2019-03-05T22:52:03.372Z,6.30
2019-03-05T22:54:33.854Z,6.30
2019-03-05T22:57:04.084Z,6.40
2019-03-05T22:59:34.374Z,6.40
2019-03-05T23:02:05.745Z,6.40
2019-03-05T23:04:36.272Z,6.40
2019-03-05T23:07:07.244Z,6.40
2019-03-05T23:09:37.429Z,6.40
2019-03-05T23:12:08.031Z,6.40
2019-03-05T23:14:38.677Z,6.50
2019-03-05T23:17:09.215Z,6.60
2019-03-05T23:19:39.785Z,6.50
2019-03-05T23:22:10.121Z,6.50
2019-03-05T23:24:40.528Z,6.60
2019-03-05T23:27:10.765Z,6.60
2019-03-05T23:29:42.869Z,6.60
2019-03-05T23:32:13.864Z,6.50
2019-03-05T23:34:44.232Z,6.60
2019-03-05T23:37:14.681Z,6.60
2019-03-05T23:39:45.162Z,6.70
2019-03-05T23:42:15.506Z,6.70
2019-03-05T23:44:45.813Z,6.80
2019-03-05T23:47:16.177Z,6.80
2019-03-05T23:49:46.456Z,6.80
2019-03-05T23:52:16.650Z,6.80
2019-03-05T23:54:46.812Z,6.80
2019-03-05T23:57:17.101Z,6.80
2019-03-05T23:59:47.578Z,6.80
